Time;durP1;ratioP1;P1;durP2;ratioP2;P2;SDS_P1;SDS_P2;PMS_P1;PMS_P2;Temp;Humidity;BMP_temperature;BMP_pressure;BME280_temperature;BME280_humidity;BME280_pressure;Samples;Min_cycle;Max_cycle;Signal;HPM_P1;HPM_P2
2022/06/24 00:02:19;;;;;;;2.70;2.50;;;;;;;23.50;40.81;100215.91;5059544;28;20221;-79
2022/06/24 00:04:52;;;;;;;3.10;2.60;;;;;;;23.52;40.92;100214.81;5059572;28;20621;-79
2022/06/24 00:07:18;;;;;;;3.10;2.53;;;;;;;23.55;40.52;100201.28;5059289;28;20237;-79
2022/06/24 00:09:46;;;;;;;2.60;2.50;;;;;;;23.57;40.59;100219.81;5058719;28;20233;-79
2022/06/24 00:12:15;;;;;;;2.90;2.70;;;;;;;23.58;40.65;100210.84;5058759;28;20202;-78
2022/06/24 00:14:45;;;;;;;2.80;2.60;;;;;;;23.58;40.59;100209.00;5058788;28;20209;-79
2022/06/24 00:17:12;;;;;;;2.90;2.70;;;;;;;23.57;40.96;100209.16;5059153;28;20205;-79
2022/06/24 00:19:53;;;;;;;3.07;2.60;;;;;;;23.54;41.19;100196.06;5058921;28;20279;-78
2022/06/24 00:22:20;;;;;;;10.00;2.77;;;;;;;23.49;41.15;100199.09;5059181;28;20290;-79
2022/06/24 00:24:46;;;;;;;2.27;2.17;;;;;;;23.43;41.62;100183.56;5058535;28;20777;-79
2022/06/24 00:27:22;;;;;;;2.80;2.60;;;;;;;23.39;41.71;100190.94;5058582;28;20201;-79
2022/06/24 00:29:49;;;;;;;2.40;2.30;;;;;;;23.32;42.14;100194.19;5058522;28;20228;-79
2022/06/24 00:32:17;;;;;;;3.10;2.73;;;;;;;23.28;42.08;100177.59;5059128;28;20201;-79
2022/06/24 00:34:43;;;;;;;3.00;2.70;;;;;;;23.23;42.50;100176.25;5058975;28;20205;-79
2022/06/24 00:37:24;;;;;;;3.13;2.63;;;;;;;23.21;42.19;100168.38;5058408;28;20586;-79
2022/06/24 00:39:51;;;;;;;3.20;2.90;;;;;;;23.18;42.49;100155.28;5074697;28;20232;-79
2022/06/24 00:42:20;;;;;;;3.03;2.73;;;;;;;23.10;42.84;100152.38;5078016;28;20787;-79
2022/06/24 00:44:51;;;;;;;2.73;2.63;;;;;;;23.07;42.96;100147.25;5079036;28;20317;-79
2022/06/24 00:47:18;;;;;;;3.37;2.83;;;;;;;23.02;42.81;100139.63;5078954;28;20262;-79
2022/06/24 00:49:47;;;;;;;2.90;2.57;;;;;;;22.97;43.35;100139.97;5078011;28;20228;-79
2022/06/24 00:52:15;;;;;;;2.90;2.70;;;;;;;22.93;43.06;100129.63;5077699;28;20274;-79
2022/06/24 00:54:44;;;;;;;3.47;2.87;;;;;;;22.88;43.40;100135.31;5078472;28;20208;-79
2022/06/24 00:57:11;;;;;;;2.50;2.40;;;;;;;22.84;43.62;100125.03;5078419;28;20266;-79
2022/06/24 00:59:40;;;;;;;3.00;2.80;;;;;;;22.80;43.70;100121.75;5077529;28;20274;-78
2022/06/24 01:02:08;;;;;;;3.03;2.83;;;;;;;22.75;43.89;100115.91;5077823;28;20204;-79
2022/06/24 01:04:35;;;;;;;3.13;2.90;;;;;;;22.71;43.76;100109.13;5077770;28;20640;-78
2022/06/24 01:07:02;;;;;;;2.80;2.60;;;;;;;22.66;43.95;100104.16;5078329;28;20209;-79
2022/06/24 01:09:29;;;;;;;3.13;2.87;;;;;;;22.62;43.79;100102.69;5077466;28;20228;-79
2022/06/24 01:11:55;;;;;;;3.30;3.10;;;;;;;22.59;43.69;100101.09;5078082;28;20246;-79
2022/06/24 01:14:22;;;;;;;2.83;2.63;;;;;;;22.55;43.90;100099.63;5077422;28;20216;-79
2022/06/24 01:16:50;;;;;;;3.23;2.93;;;;;;;22.52;44.22;100099.03;5077496;28;20624;-79
2022/06/24 01:19:17;;;;;;;4.07;2.73;;;;;;;22.49;44.35;100089.44;5077336;28;20228;-79
2022/06/24 01:21:46;;;;;;;2.70;2.50;;;;;;;22.46;44.52;100072.84;5077759;28;20205;-79
2022/06/24 01:24:16;;;;;;;3.03;2.67;;;;;;;22.41;44.42;100079.38;5077722;28;20208;-79
2022/06/24 01:26:45;;;;;;;4.13;2.67;;;;;;;22.37;44.81;100082.38;5077238;28;20204;-79
2022/06/24 01:29:12;;;;;;;3.03;2.83;;;;;;;22.31;44.98;100073.03;5077495;28;20225;-79
2022/06/24 01:31:40;;;;;;;3.20;2.90;;;;;;;22.27;45.09;100063.59;5076814;28;20717;-79
2022/06/24 01:34:07;;;;;;;3.07;2.87;;;;;;;22.23;45.26;100066.56;5077865;28;20216;-78
2022/06/24 01:36:33;;;;;;;5.23;3.00;;;;;;;22.19;45.32;100057.97;5078098;28;20267;-79
2022/06/24 01:39:01;;;;;;;3.27;3.07;;;;;;;22.15;45.35;100054.69;5074413;28;20590;-79
2022/06/24 01:41:28;;;;;;;3.00;2.80;;;;;;;22.10;45.47;100045.34;5077540;28;20204;-79
2022/06/24 01:43:54;;;;;;;2.97;2.77;;;;;;;22.05;46.00;100036.88;5077279;28;20200;-79
2022/06/24 01:46:20;;;;;;;3.23;2.93;;;;;;;22.02;46.07;100038.78;5077268;28;20258;-78
2022/06/24 01:48:47;;;;;;;3.27;2.80;;;;;;;21.94;46.47;100034.97;5076991;28;20796;-79
2022/06/24 01:51:15;;;;;;;3.30;2.90;;;;;;;21.83;47.32;100011.84;5076640;28;20282;-79
2022/06/24 01:53:41;;;;;;;3.67;3.30;;;;;;;21.80;46.95;99990.81;5077061;28;20213;-79
2022/06/24 01:56:09;;;;;;;5.70;3.10;;;;;;;21.76;48.24;99987.56;5078168;28;20544;-78
2022/06/24 01:58:36;;;;;;;2.83;2.63;;;;;;;21.76;48.31;99968.97;5076821;28;20213;-79
2022/06/24 02:01:02;;;;;;;3.17;2.90;;;;;;;21.73;48.85;99952.38;5077056;28;20293;-79
2022/06/24 02:03:29;;;;;;;3.60;3.30;;;;;;;21.67;49.33;99926.28;5077047;28;20208;-79
2022/06/24 02:06:01;;;;;;;4.10;3.13;;;;;;;21.66;49.37;99920.09;5077216;28;20204;-79
2022/06/24 02:08:27;;;;;;;3.03;2.73;;;;;;;21.56;48.83;99914.59;5070973;28;20205;-79
2022/06/24 02:13:39;;;;;;;3.20;3.00;;;;;;;21.50;48.47;99915.06;5057116;28;20583;-79
2022/06/24 02:16:07;;;;;;;2.93;2.73;;;;;;;21.40;49.17;99920.16;5056684;28;20255;-79
2022/06/24 02:18:34;;;;;;;3.60;3.10;;;;;;;21.31;49.40;99904.91;5056801;28;20268;-79
2022/06/24 02:21:01;;;;;;;3.10;2.90;;;;;;;21.32;50.26;99895.13;5056489;28;20229;-79
2022/06/24 02:23:28;;;;;;;2.70;2.60;;;;;;;21.34;49.92;99878.13;5056139;28;20676;-79
2022/06/24 02:25:55;;;;;;;3.10;2.87;;;;;;;21.32;50.49;99876.56;5056673;28;20209;-79
2022/06/24 02:28:22;;;;;;;3.87;3.47;;;;;;;21.31;50.59;99872.22;5056623;28;20213;-79
2022/06/24 02:30:53;;;;;;;3.33;3.03;;;;;;;21.31;50.63;99857.13;5056057;28;20236;-79
2022/06/24 02:33:20;;;;;;;3.70;3.40;;;;;;;21.20;50.61;99863.19;5056736;28;20209;-79
2022/06/24 02:35:47;;;;;;;3.10;2.80;;;;;;;21.17;51.24;99839.53;5056739;28;20201;-79
2022/06/24 02:38:13;;;;;;;3.57;3.37;;;;;;;21.12;51.71;99830.22;5056289;28;20649;-78
2022/06/24 02:40:47;;;;;;;3.00;2.80;;;;;;;21.10;51.71;99819.72;5056183;28;20225;-79
2022/06/24 02:43:15;;;;;;;2.90;2.73;;;;;;;21.06;52.32;99809.44;5056665;28;20208;-79
2022/06/24 02:45:42;;;;;;;4.33;3.13;;;;;;;21.01;52.78;99784.09;5056593;28;20209;-79
2022/06/24 02:48:10;;;;;;;3.50;2.93;;;;;;;21.06;52.99;99769.63;5056370;28;20686;-79
2022/06/24 02:50:41;;;;;;;3.00;2.70;;;;;;;21.06;52.75;99764.31;5056013;28;20229;-78
2022/06/24 02:53:07;;;;;;;2.80;2.70;;;;;;;21.01;53.08;99767.31;5056530;28;20221;-79
2022/06/24 02:55:34;;;;;;;3.33;3.03;;;;;;;21.00;53.31;99749.69;5056385;28;20263;-79
2022/06/24 02:58:00;;;;;;;3.83;3.53;;;;;;;20.95;53.71;99742.09;5056446;28;20734;-79
2022/06/24 03:00:27;;;;;;;3.20;2.83;;;;;;;20.94;53.67;99731.56;5054761;28;20291;-79
2022/06/24 03:02:53;;;;;;;3.03;2.83;;;;;;;20.89;54.37;99712.47;5053993;28;20259;-78
2022/06/24 03:05:21;;;;;;;3.00;2.80;;;;;;;20.89;54.63;99709.84;5054443;28;20209;-79
2022/06/24 03:07:48;;;;;;;3.20;3.00;;;;;;;20.85;54.92;99697.75;5055713;28;20288;-79
2022/06/24 03:10:15;;;;;;;3.30;3.10;;;;;;;20.80;54.39;99692.78;5075743;28;20229;-79
2022/06/24 03:12:42;;;;;;;3.70;3.40;;;;;;;20.76;54.44;99705.44;5076053;28;20225;-79
2022/06/24 03:15:09;;;;;;;3.20;3.00;;;;;;;20.78;54.73;99697.38;5075770;28;20630;-79
2022/06/24 03:17:36;;;;;;;2.77;2.60;;;;;;;20.79;53.83;99697.25;5076117;28;20212;-79
2022/06/24 03:20:03;;;;;;;3.73;3.50;;;;;;;20.81;54.22;99705.09;5076062;28;20301;-79
2022/06/24 03:22:30;;;;;;;3.23;3.03;;;;;;;20.82;53.98;99720.91;5076502;28;20212;-79
2022/06/24 03:24:57;;;;;;;4.17;3.30;;;;;;;20.83;54.13;99722.59;5076398;28;20205;-79
2022/06/24 03:27:23;;;;;;;3.47;3.17;;;;;;;20.82;53.92;99718.25;5075481;28;20214;-78
2022/06/24 03:29:50;;;;;;;3.40;3.20;;;;;;;20.86;53.97;99713.56;5075373;28;20259;-79
2022/06/24 03:32:16;;;;;;;4.77;3.40;;;;;;;20.87;54.20;99704.66;5076345;28;20232;-79
2022/06/24 03:34:42;;;;;;;3.57;3.37;;;;;;;20.88;54.16;99711.66;5076000;28;20705;-79
2022/06/24 03:37:09;;;;;;;3.23;3.03;;;;;;;20.93;54.59;99701.56;5076478;28;20208;-78
2022/06/24 03:39:37;;;;;;;3.47;3.17;;;;;;;20.92;54.39;99697.19;5073926;28;21052;-79
2022/06/24 03:42:04;;;;;;;4.03;3.70;;;;;;;20.95;54.22;99706.72;5066478;28;20243;-79
2022/06/24 03:44:31;;;;;;;4.03;3.20;;;;;;;20.89;54.84;99697.44;5066586;28;20614;-79
2022/06/24 03:46:58;;;;;;;3.40;3.10;;;;;;;20.83;55.22;99681.94;5065083;28;20197;-79
2022/06/24 03:49:24;;;;;;;3.67;3.37;;;;;;;20.86;55.42;99679.06;5064711;28;20274;-79
2022/06/24 03:51:51;;;;;;;3.77;3.47;;;;;;;20.87;55.84;99677.25;5066747;28;20293;-79
2022/06/24 03:54:17;;;;;;;3.57;3.27;;;;;;;20.89;55.76;99670.91;5064868;28;20672;-79
2022/06/24 03:56:45;;;;;;;3.30;3.07;;;;;;;20.95;56.08;99666.94;5064995;28;20193;-79
2022/06/24 03:59:11;;;;;;;3.53;3.33;;;;;;;20.96;56.36;99665.97;5064395;28;20654;-80
2022/06/24 04:01:38;;;;;;;3.47;3.20;;;;;;;20.95;55.82;99657.19;5066295;28;20208;-80
2022/06/24 04:04:05;;;;;;;4.33;3.53;;;;;;;21.00;56.02;99657.66;5067286;28;20197;-81
2022/06/24 04:06:31;;;;;;;3.43;3.10;;;;;;;21.03;55.87;99660.09;5066916;28;20197;-81
2022/06/24 04:08:58;;;;;;;5.40;3.40;;;;;;;21.05;56.60;99652.03;5067916;28;20267;-80
2022/06/24 04:11:24;;;;;;;3.50;3.20;;;;;;;21.07;56.31;99652.75;5066684;28;20208;-81
2022/06/24 04:13:52;;;;;;;3.70;3.40;;;;;;;21.10;56.92;99646.38;5068112;28;20638;-81
2022/06/24 04:16:18;;;;;;;6.23;3.27;;;;;;;21.14;56.15;99639.88;5069302;28;20205;-80
2022/06/24 04:18:46;;;;;;;3.00;2.80;;;;;;;21.18;56.79;99665.22;5068386;28;20238;-81
2022/06/24 04:21:13;;;;;;;3.30;3.10;;;;;;;21.20;55.59;99673.91;5071348;28;20244;-81
2022/06/24 04:23:40;;;;;;;3.43;3.23;;;;;;;21.29;55.39;99672.34;5069325;28;20217;-81
2022/06/24 04:26:07;;;;;;;3.20;3.00;;;;;;;21.30;56.09;99674.06;5068999;28;20606;-81
2022/06/24 04:28:34;;;;;;;3.40;3.10;;;;;;;21.34;56.78;99665.72;5070587;28;20242;-81
2022/06/24 04:31:02;;;;;;;3.40;3.10;;;;;;;21.39;57.53;99660.09;5069129;28;20222;-81
2022/06/24 04:33:28;;;;;;;3.30;3.10;;;;;;;21.41;57.73;99643.06;5068647;28;20225;-81
2022/06/24 04:35:55;;;;;;;3.30;3.10;;;;;;;21.49;58.13;99631.06;5059515;28;20205;-79
2022/06/24 04:38:21;;;;;;;3.50;3.20;;;;;;;21.48;57.24;99632.00;5061681;28;20209;-79
2022/06/24 04:40:48;;;;;;;4.33;3.27;;;;;;;21.48;55.24;99640.81;5067654;28;20270;-80
2022/06/24 04:43:14;;;;;;;3.40;2.90;;;;;;;21.52;55.03;99705.16;5069197;28;20202;-79
2022/06/24 04:45:41;;;;;;;3.33;3.03;;;;;;;21.62;56.34;99695.50;5068671;28;20983;-82
2022/06/24 04:48:09;;;;;;;3.10;2.90;;;;;;;21.73;56.09;99700.84;5068182;28;20197;-79
2022/06/24 04:50:35;;;;;;;3.07;2.87;;;;;;;21.82;56.19;99686.00;5058752;28;20220;-80
2022/06/24 04:53:02;;;;;;;3.00;2.87;;;;;;;21.81;55.42;99710.88;5059141;28;20213;-80
2022/06/24 04:55:29;;;;;;;3.67;3.47;;;;;;;21.88;56.61;99713.91;5059174;28;20648;-80
2022/06/24 04:57:55;;;;;;;2.97;2.67;;;;;;;21.87;56.12;99688.31;5058386;28;20198;-80
2022/06/24 05:00:21;;;;;;;3.20;2.90;;;;;;;21.90;55.69;99704.88;5058426;28;20225;-80
2022/06/24 05:02:48;;;;;;;3.20;3.00;;;;;;;21.96;56.01;99704.38;5059321;28;20202;-81
2022/06/24 05:05:15;;;;;;;3.30;3.10;;;;;;;21.99;56.32;99696.16;5059372;28;20197;-80
2022/06/24 05:07:42;;;;;;;3.40;3.20;;;;;;;22.09;56.97;99704.25;5058287;28;20201;-81
2022/06/24 05:10:09;;;;;;;4.20;3.90;;;;;;;22.16;57.92;99665.59;5070044;28;20230;-81
2022/06/24 05:12:36;;;;;;;3.90;3.60;;;;;;;22.19;59.03;99622.78;5067163;28;20213;-79
2022/06/24 05:15:02;;;;;;;4.30;4.00;;;;;;;22.25;59.09;99613.53;5067444;28;20205;-80
2022/06/24 05:17:29;;;;;;;4.47;4.10;;;;;;;22.07;59.39;99602.53;5068003;28;20197;-80
2022/06/24 05:19:55;;;;;;;4.43;4.13;;;;;;;21.81;59.99;99604.63;5066123;28;20723;-79
2022/06/24 05:22:23;;;;;;;4.40;4.10;;;;;;;21.57;60.23;99591.47;5066500;28;20561;-79
2022/06/24 05:24:49;;;;;;;5.77;4.07;;;;;;;21.49;61.01;99583.25;5066540;28;20205;-79
2022/06/24 05:27:16;;;;;;;4.53;3.80;;;;;;;21.57;61.15;99563.09;5065320;28;20698;-79
2022/06/24 05:29:42;;;;;;;4.60;4.13;;;;;;;21.75;60.68;99571.41;5066337;28;20212;-80
2022/06/24 05:32:09;;;;;;;4.37;4.03;;;;;;;21.84;60.56;99585.75;5067650;28;20275;-79
2022/06/24 05:34:35;;;;;;;4.27;3.80;;;;;;;22.00;60.93;99588.03;5065757;28;20197;-79
2022/06/24 05:37:02;;;;;;;4.10;3.67;;;;;;;22.06;61.76;99590.22;5067512;28;20246;-80
2022/06/24 05:39:30;;;;;;;4.10;3.80;;;;;;;22.07;61.37;99583.09;5068277;28;20289;-80
2022/06/24 05:41:56;;;;;;;4.20;3.80;;;;;;;22.16;60.84;99590.28;5067237;28;20201;-80
2022/06/24 05:44:22;;;;;;;4.13;3.80;;;;;;;22.17;60.84;99602.63;5066751;28;20227;-79
2022/06/24 05:46:49;;;;;;;5.00;3.97;;;;;;;22.19;59.25;99620.13;5066082;28;20254;-80
2022/06/24 05:49:16;;;;;;;4.17;3.87;;;;;;;22.25;59.06;99637.44;5067104;28;20707;-80
2022/06/24 05:51:42;;;;;;;3.93;3.67;;;;;;;22.35;56.41;99715.50;5066525;28;20248;-81
2022/06/24 05:56:54;;;;;;;4.30;3.90;;;;;;;22.58;54.84;99782.84;5067538;28;20207;-79
2022/06/24 05:59:20;;;;;;;4.57;4.17;;;;;;;22.71;53.22;99769.38;5066053;28;20225;-80
2022/06/24 06:01:49;;;;;;;4.23;4.03;;;;;;;22.92;51.06;99809.41;5066845;28;20207;-81
2022/06/24 06:04:15;;;;;;;3.93;3.73;;;;;;;23.14;50.05;99887.56;5067685;28;20196;-80
2022/06/24 06:06:42;;;;;;;3.90;3.67;;;;;;;23.30;48.57;99919.13;5066551;28;20274;-81
2022/06/24 06:09:08;;;;;;;4.57;4.03;;;;;;;23.44;50.10;99939.31;5067047;28;20221;-80
2022/06/24 06:11:35;;;;;;;3.57;3.37;;;;;;;23.57;49.51;99940.03;5072915;28;20204;-81
2022/06/24 06:14:03;;;;;;;3.93;3.63;;;;;;;23.62;48.92;99961.81;5077322;28;20231;-79
2022/06/24 06:16:29;;;;;;;4.07;3.87;;;;;;;23.63;49.30;99944.84;5074944;28;20214;-79
2022/06/24 06:18:56;;;;;;;4.00;3.60;;;;;;;23.70;49.81;99951.38;5074587;28;20205;-79
2022/06/24 06:21:22;;;;;;;3.93;3.63;;;;;;;23.74;48.12;99926.16;5075113;28;20208;-80
2022/06/24 06:23:49;;;;;;;4.10;3.80;;;;;;;23.81;49.53;99963.03;5075340;28;20212;-79
2022/06/24 06:26:15;;;;;;;4.00;3.70;;;;;;;23.78;49.24;99929.44;5074325;28;20622;-78
2022/06/24 06:28:42;;;;;;;4.03;3.80;;;;;;;23.87;48.98;99955.34;5074435;28;20207;-79
2022/06/24 06:31:11;;;;;;;4.17;3.90;;;;;;;23.93;49.24;99932.69;5073925;28;20342;-78
2022/06/24 06:33:38;;;;;;;3.97;3.77;;;;;;;24.04;49.28;99943.28;5074073;28;20285;-78
2022/06/24 06:36:04;;;;;;;4.53;4.13;;;;;;;24.10;49.53;99921.47;5074351;28;20204;-79
2022/06/24 06:38:31;;;;;;;4.57;4.17;;;;;;;24.16;49.39;99917.41;5071762;28;20784;-79
2022/06/24 06:40:57;;;;;;;4.20;3.90;;;;;;;24.27;49.73;99919.19;5073872;28;20212;-78
2022/06/24 06:43:24;;;;;;;4.33;3.90;;;;;;;24.37;50.56;99930.75;5072239;28;20200;-79
2022/06/24 06:45:51;;;;;;;4.50;4.17;;;;;;;24.39;49.31;99910.97;5074039;28;20744;-79
2022/06/24 06:48:18;;;;;;;4.73;4.23;;;;;;;24.42;49.67;99933.03;5074275;28;20300;-78
2022/06/24 06:50:45;;;;;;;8.70;4.37;;;;;;;24.36;48.50;99956.59;5072896;28;20290;-78
2022/06/24 06:53:11;;;;;;;8.20;4.47;;;;;;;24.30;48.05;99953.59;5074173;28;20221;-78
2022/06/24 06:55:38;;;;;;;6.70;4.47;;;;;;;24.34;46.99;99977.22;5075820;28;20239;-79
2022/06/24 06:58:04;;;;;;;4.30;3.90;;;;;;;24.26;47.98;99997.50;5073062;28;20208;-77
2022/06/24 07:00:31;;;;;;;3.90;3.70;;;;;;;24.30;47.27;99967.78;5073305;28;20224;-77
2022/06/24 07:02:57;;;;;;;4.93;4.53;;;;;;;24.26;47.21;99976.16;5073913;28;20246;-77
2022/06/24 07:05:25;;;;;;;4.00;3.80;;;;;;;24.30;46.90;100001.59;5072649;28;20254;-77
2022/06/24 07:07:51;;;;;;;4.13;3.83;;;;;;;24.37;47.47;99997.44;5071973;28;20208;-77
2022/06/24 07:10:18;;;;;;;4.33;4.03;;;;;;;24.40;47.45;99983.88;5070831;28;20221;-78
2022/06/24 07:12:44;;;;;;;4.57;4.20;;;;;;;24.44;48.00;99987.09;5073776;28;20648;-78
2022/06/24 07:15:14;;;;;;;4.20;3.90;;;;;;;24.41;47.53;99976.69;5073108;28;20208;-78
2022/06/24 07:17:40;;;;;;;3.83;3.53;;;;;;;24.44;47.71;99966.63;5072483;28;20209;-78
2022/06/24 07:20:08;;;;;;;4.80;4.50;;;;;;;24.58;47.79;99978.81;5070389;28;20839;-77
2022/06/24 07:22:35;;;;;;;4.83;4.40;;;;;;;24.65;47.81;99985.31;5071229;28;20204;-76
2022/06/24 07:25:02;;;;;;;3.87;3.60;;;;;;;24.66;48.09;99979.00;5071864;28;20274;-76
2022/06/24 07:27:28;;;;;;;6.40;3.90;;;;;;;24.58;48.04;99997.50;5071262;28;20201;-76
2022/06/24 07:29:55;;;;;;;4.07;3.77;;;;;;;24.63;48.21;99975.75;5071414;28;20229;-76
2022/06/24 07:32:22;;;;;;;4.87;4.17;;;;;;;24.65;48.68;99977.31;5070721;28;20236;-77
2022/06/24 07:34:48;;;;;;;5.07;3.60;;;;;;;24.58;48.01;99973.50;5071411;28;20255;-76
2022/06/24 07:37:15;;;;;;;4.17;3.77;;;;;;;24.62;47.70;99952.69;5071294;28;20204;-76
2022/06/24 07:39:42;;;;;;;3.80;3.50;;;;;;;24.65;48.26;99958.63;5068581;28;20776;-77
2022/06/24 07:42:09;;;;;;;3.80;3.50;;;;;;;24.73;48.99;99948.13;5071071;28;20201;-76
2022/06/24 07:44:36;;;;;;;3.50;3.20;;;;;;;24.73;48.80;99949.97;5071215;28;20213;-77
2022/06/24 07:47:02;;;;;;;3.77;3.43;;;;;;;24.71;48.63;99938.56;5071019;28;20633;-77
2022/06/24 07:49:29;;;;;;;3.17;2.97;;;;;;;24.81;48.90;99947.47;5073813;28;20224;-77
2022/06/24 07:51:55;;;;;;;4.00;3.33;;;;;;;24.83;48.47;99937.50;5075462;28;20258;-77
2022/06/24 07:54:22;;;;;;;3.60;3.30;;;;;;;24.90;48.57;99937.84;5075443;28;20228;-77
2022/06/24 07:56:58;;;;;;;3.23;3.00;;;;;;;25.01;49.07;99948.41;5075036;28;20299;-78
2022/06/24 07:59:25;;;;;;;4.83;2.93;;;;;;;25.21;49.33;99916.44;5074562;28;20255;-77
2022/06/24 08:01:53;;;;;;;3.83;3.37;;;;;;;25.22;48.15;99912.81;5075018;28;20283;-77
2022/06/24 08:04:20;;;;;;;3.97;3.23;;;;;;;25.22;48.95;99927.00;5067243;28;20203;-76
2022/06/24 08:06:49;;;;;;;3.37;3.07;;;;;;;25.26;49.32;99927.59;5054827;28;20255;-77
2022/06/24 08:09:17;;;;;;;3.10;2.77;;;;;;;25.25;48.56;99923.22;5064155;28;20240;-77
2022/06/24 08:11:44;;;;;;;4.80;3.00;;;;;;;25.25;49.92;99916.06;5074452;28;20246;-77
2022/06/24 08:14:12;;;;;;;3.80;3.30;;;;;;;25.32;50.08;99890.47;5074911;28;20297;-76
2022/06/24 08:16:38;;;;;;;4.03;2.60;;;;;;;25.43;49.32;99891.31;5074531;28;20200;-77
2022/06/24 08:19:05;;;;;;;2.07;1.97;;;;;;;25.45;48.54;99894.72;5074451;28;20233;-77
2022/06/24 08:21:31;;;;;;;2.50;2.30;;;;;;;25.44;48.86;99931.28;5074543;28;20209;-77
2022/06/24 08:23:57;;;;;;;3.43;2.40;;;;;;;25.54;48.59;99926.78;5075006;28;20201;-77
2022/06/24 08:26:24;;;;;;;2.10;1.90;;;;;;;25.51;47.56;99905.72;5075122;28;20204;-78
2022/06/24 08:28:50;;;;;;;4.30;2.00;;;;;;;25.66;48.80;99934.69;5075126;28;20215;-78
2022/06/24 08:31:18;;;;;;;2.93;1.80;;;;;;;25.74;47.89;99903.59;5074242;28;20212;-77
2022/06/24 08:33:44;;;;;;;2.63;2.03;;;;;;;25.74;48.38;99927.66;5074960;28;20221;-77
2022/06/24 08:36:11;;;;;;;2.10;1.50;;;;;;;25.58;49.01;99911.34;5074596;28;20346;-77
2022/06/24 08:38:37;;;;;;;2.13;1.60;;;;;;;25.48;48.77;99895.28;5071961;28;20594;-78
2022/06/24 08:41:04;;;;;;;2.13;1.57;;;;;;;25.40;48.94;99904.97;5073766;28;20217;-77
2022/06/24 08:43:32;;;;;;;3.67;2.03;;;;;;;25.31;50.14;99899.50;5074708;28;20560;-78
2022/06/24 08:45:59;;;;;;;2.97;1.83;;;;;;;25.32;49.88;99885.13;5074336;28;20209;-77
2022/06/24 08:48:28;;;;;;;2.80;2.33;;;;;;;25.47;50.21;99885.59;5073793;28;20262;-77
2022/06/24 08:50:57;;;;;;;3.43;1.70;;;;;;;25.49;50.85;99869.41;5074509;28;20232;-77
2022/06/24 08:53:26;;;;;;;5.10;1.73;;;;;;;25.42;49.87;99865.59;5074503;28;20760;-77
2022/06/24 08:55:52;;;;;;;2.47;1.20;;;;;;;25.38;49.18;99894.44;5073823;28;20740;-77
2022/06/24 08:58:19;;;;;;;2.30;1.40;;;;;;;25.25;49.38;99897.38;5073625;28;20679;-78
2022/06/24 09:00:46;;;;;;;2.73;1.60;;;;;;;25.14;50.11;99881.41;5072718;28;20228;-78
2022/06/24 09:03:13;;;;;;;2.73;1.70;;;;;;;25.08;50.75;99871.28;5073732;28;20816;-78
2022/06/24 09:05:42;;;;;;;2.70;2.20;;;;;;;24.82;51.77;99863.75;5074251;28;20671;-77
2022/06/24 09:08:11;;;;;;;3.03;2.20;;;;;;;24.90;52.01;99831.03;5071206;28;20205;-77
2022/06/24 09:10:39;;;;;;;2.00;1.70;;;;;;;24.90;51.76;99829.19;5073776;28;20584;-78
2022/06/24 09:13:06;;;;;;;2.60;1.90;;;;;;;24.88;52.29;99815.13;5073520;28;20209;-77
2022/06/24 09:15:33;;;;;;;3.63;1.90;;;;;;;25.00;52.23;99820.38;5073653;28;20667;-77
2022/06/24 09:18:00;;;;;;;1.73;1.60;;;;;;;24.77;53.16;99801.91;5072907;28;20649;-75
2022/06/24 09:20:29;;;;;;;5.17;2.30;;;;;;;24.87;53.76;99799.25;5073542;28;20225;-77
2022/06/24 09:23:04;;;;;;;3.13;2.20;;;;;;;24.96;54.44;99767.22;5073656;28;20244;-77
2022/06/24 09:25:42;;;;;;;3.33;1.97;;;;;;;25.10;54.40;99757.97;5073033;28;20674;-76
2022/06/24 09:28:08;;;;;;;3.47;2.00;;;;;;;25.15;53.84;99760.22;5073224;28;20204;-76
2022/06/24 09:30:36;;;;;;;5.17;1.90;;;;;;;25.19;53.10;99785.66;5073457;28;20374;-77
2022/06/24 09:33:03;;;;;;;1.60;1.50;;;;;;;25.24;52.51;99799.50;5073001;28;20255;-76
2022/06/24 09:35:29;;;;;;;2.23;2.00;;;;;;;25.29;52.43;99791.03;5073046;28;20208;-76
2022/06/24 09:37:56;;;;;;;1.97;1.63;;;;;;;25.28;52.56;99811.59;5071820;28;20678;-76
2022/06/24 09:40:26;;;;;;;1.83;1.40;;;;;;;25.34;52.10;99818.19;5072254;28;20235;-77
2022/06/24 09:42:57;;;;;;;1.93;1.83;;;;;;;25.36;52.00;99813.56;5074397;28;20556;-78
2022/06/24 09:45:24;;;;;;;1.83;1.73;;;;;;;25.42;52.24;99828.19;5074289;28;20209;-78
2022/06/24 09:47:52;;;;;;;4.07;1.83;;;;;;;25.48;54.45;99795.56;5066266;28;20365;-79
2022/06/24 09:50:19;;;;;;;1.90;1.73;;;;;;;25.51;55.58;99748.03;5065468;28;20224;-80
2022/06/24 09:52:46;;;;;;;3.33;2.00;;;;;;;25.53;53.94;99766.56;5065275;28;20232;-78
2022/06/24 09:55:13;;;;;;;2.77;2.57;;;;;;;25.54;55.37;99782.47;5062198;28;20263;-78
2022/06/24 09:57:41;;;;;;;3.53;1.90;;;;;;;25.56;57.94;99686.94;5063055;28;20193;-77
2022/06/24 10:02:53;;;;;;;3.87;2.50;;;;;;;25.60;59.73;99603.81;5061576;28;20208;-79
2022/06/24 10:05:21;;;;;;;2.50;2.13;;;;;;;25.56;60.58;99592.56;5062963;28;20322;-78
2022/06/24 10:07:49;;;;;;;2.90;2.70;;;;;;;25.52;60.82;99569.81;5064061;28;20733;-78
2022/06/24 10:10:17;;;;;;;2.73;2.20;;;;;;;25.51;60.63;99587.69;5066520;28;20274;-78
2022/06/24 10:12:50;;;;;;;2.23;2.10;;;;;;;25.50;62.15;99564.59;5061692;28;20201;-77
2022/06/24 10:15:17;;;;;;;3.40;3.07;;;;;;;25.50;61.07;99580.63;5062819;28;20306;-77
2022/06/24 10:17:46;;;;;;;2.13;1.93;;;;;;;25.48;60.90;99600.47;5061629;28;20683;-80
2022/06/24 10:20:14;;;;;;;2.93;2.40;;;;;;;25.44;60.40;99612.44;5055295;28;20221;-80
2022/06/24 10:22:44;;;;;;;3.50;2.57;;;;;;;25.26;56.67;99700.50;5055339;28;20237;-79
2022/06/24 10:25:10;;;;;;;5.13;2.80;;;;;;;25.15;57.16;99745.06;5053019;28;20231;-77
2022/06/24 10:28:10;;;;;;;2.77;2.47;;;;;;;25.16;57.42;99738.72;5053329;28;20197;-79
2022/06/24 10:30:56;;;;;;;4.83;2.93;;;;;;;25.08;59.44;99697.69;5053313;28;20217;-79
2022/06/24 10:33:23;;;;;;;5.00;2.70;;;;;;;25.08;61.20;99650.44;5057338;28;20216;-78
2022/06/24 10:36:01;;;;;;;2.80;2.60;;;;;;;25.01;61.46;99640.47;5062495;28;20206;-78
2022/06/24 10:38:35;;;;;;;4.80;2.50;;;;;;;25.02;62.83;99596.78;5062055;28;20248;-78
2022/06/24 10:41:03;;;;;;;3.77;3.03;;;;;;;24.76;64.58;99547.47;5066291;28;20214;-78
2022/06/24 10:43:36;;;;;;;5.03;2.90;;;;;;;24.82;65.57;99498.00;5061641;28;20230;-77
2022/06/24 10:46:18;;;;;;;3.00;2.67;;;;;;;24.78;66.05;99510.81;5061447;28;20239;-77
2022/06/24 10:49:06;;;;;;;2.50;2.20;;;;;;;24.52;65.86;99507.06;5062501;28;20260;-77
2022/06/24 10:51:34;;;;;;;2.93;2.60;;;;;;;24.39;66.48;99499.28;5060434;28;20208;-79
2022/06/24 10:54:14;;;;;;;4.03;2.17;;;;;;;24.43;66.30;99500.69;5064273;28;20322;-79
2022/06/24 10:56:43;;;;;;;4.90;2.40;;;;;;;24.49;66.60;99496.63;5063573;28;20205;-78
2022/06/24 10:59:12;;;;;;;3.03;2.37;;;;;;;24.43;67.28;99492.69;5067594;28;20734;-77
2022/06/24 11:01:42;;;;;;;2.43;2.00;;;;;;;24.51;68.39;99470.66;5068281;28;20231;-78
2022/06/24 11:04:12;;;;;;;2.93;2.23;;;;;;;24.41;68.72;99461.81;5070072;28;20288;-78
2022/06/24 11:06:38;;;;;;;3.57;2.97;;;;;;;24.38;68.69;99463.78;5063331;28;20216;-79
2022/06/24 11:09:06;;;;;;;3.63;2.30;;;;;;;24.37;68.90;99447.91;5062197;28;20987;-78
2022/06/24 11:11:33;;;;;;;5.37;2.17;;;;;;;24.37;68.15;99470.09;5060703;28;20205;-76
2022/06/24 11:13:59;;;;;;;2.70;2.07;;;;;;;24.38;68.37;99478.94;5061161;28;20278;-76
2022/06/24 11:16:30;;;;;;;2.33;1.83;;;;;;;24.41;69.42;99472.47;5062087;28;20265;-76
2022/06/24 11:18:58;;;;;;;2.53;2.07;;;;;;;24.37;69.23;99443.41;5060322;28;20201;-76
2022/06/24 11:21:24;;;;;;;3.37;1.80;;;;;;;24.34;69.57;99432.19;5060301;28;20243;-76
2022/06/24 11:23:54;;;;;;;3.00;2.20;;;;;;;24.26;68.55;99466.72;5061235;28;20247;-76
2022/06/24 11:26:21;;;;;;;3.97;2.50;;;;;;;24.30;69.33;99458.31;5060500;28;20280;-76
2022/06/24 11:28:51;;;;;;;1.70;1.60;;;;;;;24.26;69.21;99482.72;4361127;28;10000827;-75
2022/06/24 11:31:19;;;;;;;2.10;1.90;;;;;;;24.03;68.52;99496.34;5056551;28;20444;-75
2022/06/24 11:33:49;;;;;;;3.17;1.90;;;;;;;24.06;69.59;99473.88;5048218;28;20236;-75
2022/06/24 11:36:15;;;;;;;2.70;1.90;;;;;;;24.17;69.47;99468.41;5048416;28;20252;-75
2022/06/24 11:38:50;;;;;;;2.13;1.93;;;;;;;24.26;70.72;99440.91;5048058;28;20267;-75
2022/06/24 11:41:22;;;;;;;1.73;1.63;;;;;;;24.23;68.10;99475.84;5067208;28;20200;-76
2022/06/24 11:43:50;;;;;;;1.90;1.80;;;;;;;24.41;67.70;99528.50;5068103;28;20209;-76